sensor_id;sensor_type;location;lat;lon;timestamp;pressure;altitude;pressure_sealevel;temperature;humidity
14041;BME280;7095;51.388;6.196;2022-07-26T00:00:05;53220.78;;;-145.32;100.00
14041;BME280;7095;51.388;6.196;2022-07-26T00:02:35;53260.53;;;-145.32;100.00
14041;BME280;7095;51.388;6.196;2022-07-26T00:05:05;53240.66;;;-145.32;100.00
14041;BME280;7095;51.388;6.196;2022-07-26T00:07:34;53276.44;;;-145.32;100.00
14041;BME280;7095;51.388;6.196;2022-07-26T00:10:05;53252.59;;;-145.32;100.00
14041;BME280;7095;51.388;6.196;2022-07-26T00:12:34;53256.56;;;-145.32;100.00
14041;BME280;7095;51.388;6.196;2022-07-26T00:15:04;53292.34;;;-145.32;100.00
14041;BME280;7095;51.388;6.196;2022-07-26T00:17:34;53264.53;;;-145.32;100.00
14041;BME280;7095;51.388;6.196;2022-07-26T00:20:03;53276.44;;;-145.32;100.00
14041;BME280;7095;51.388;6.196;2022-07-26T00:22:32;53272.47;;;-145.32;100.00
14041;BME280;7095;51.388;6.196;2022-07-26T00:25:02;53294.34;;;-145.32;100.00
14041;BME280;7095;51.388;6.196;2022-07-26T00:27:33;53244.63;;;-145.32;100.00
14041;BME280;7095;51.388;6.196;2022-07-26T00:30:05;53256.56;;;-145.32;100.00
14041;BME280;7095;51.388;6.196;2022-07-26T00:32:34;53292.34;;;-145.32;100.00
14041;BME280;7095;51.388;6.196;2022-07-26T00:35:04;53264.53;;;-145.32;100.00
14041;BME280;7095;51.388;6.196;2022-07-26T00:37:33;53262.53;;;-145.32;100.00
14041;BME280;7095;51.388;6.196;2022-07-26T00:40:03;53268.50;;;-145.32;100.00
14041;BME280;7095;51.388;6.196;2022-07-26T00:42:39;53276.44;;;-145.32;100.00
14041;BME280;7095;51.388;6.196;2022-07-26T00:45:09;53278.44;;;-145.32;100.00
14041;BME280;7095;51.388;6.196;2022-07-26T00:47:39;53260.53;;;-145.32;100.00
14041;BME280;7095;51.388;6.196;2022-07-26T00:50:12;53244.63;;;-145.32;100.00
14041;BME280;7095;51.388;6.196;2022-07-26T00:52:41;53292.34;;;-145.32;100.00
14041;BME280;7095;51.388;6.196;2022-07-26T00:55:11;53268.50;;;-145.32;100.00
14041;BME280;7095;51.388;6.196;2022-07-26T00:57:42;53292.34;;;-145.32;100.00
14041;BME280;7095;51.388;6.196;2022-07-26T01:00:13;53260.53;;;-145.32;100.00
14041;BME280;7095;51.388;6.196;2022-07-26T01:02:42;53282.41;;;-145.32;100.00
14041;BME280;7095;51.388;6.196;2022-07-26T01:05:12;53276.44;;;-145.32;100.00
14041;BME280;7095;51.388;6.196;2022-07-26T01:07:41;53282.41;;;-145.32;100.00
14041;BME280;7095;51.388;6.196;2022-07-26T01:10:10;53280.41;;;-145.32;100.00
14041;BME280;7095;51.388;6.196;2022-07-26T01:12:41;53300.31;;;-145.32;100.00
14041;BME280;7095;51.388;6.196;2022-07-26T01:15:13;53272.47;;;-145.32;100.00
14041;BME280;7095;51.388;6.196;2022-07-26T01:17:42;53296.31;;;-145.32;100.00
14041;BME280;7095;51.388;6.196;2022-07-26T01:20:12;53284.41;;;-145.32;100.00
14041;BME280;7095;51.388;6.196;2022-07-26T01:22:42;53284.41;;;-145.32;100.00
14041;BME280;7095;51.388;6.196;2022-07-26T01:25:11;53298.31;;;-145.32;100.00
14041;BME280;7095;51.388;6.196;2022-07-26T01:27:40;53264.53;;;-145.32;100.00
14041;BME280;7095;51.388;6.196;2022-07-26T01:30:10;53296.31;;;-145.32;100.00
14041;BME280;7095;51.388;6.196;2022-07-26T01:32:39;53296.31;;;-145.32;100.00
14041;BME280;7095;51.388;6.196;2022-07-26T01:35:09;53256.56;;;-145.32;100.00
14041;BME280;7095;51.388;6.196;2022-07-26T01:37:37;53272.47;;;-145.32;100.00
14041;BME280;7095;51.388;6.196;2022-07-26T01:40:09;53300.31;;;-145.32;100.00
14041;BME280;7095;51.388;6.196;2022-07-26T01:42:38;53290.38;;;-145.32;100.00
14041;BME280;7095;51.388;6.196;2022-07-26T01:45:08;53288.38;;;-145.32;100.00
14041;BME280;7095;51.388;6.196;2022-07-26T01:47:36;53280.41;;;-145.32;100.00
14041;BME280;7095;51.388;6.196;2022-07-26T01:50:07;53300.31;;;-145.32;100.00
14041;BME280;7095;51.388;6.196;2022-07-26T01:52:35;53276.44;;;-145.32;100.00
14041;BME280;7095;51.388;6.196;2022-07-26T01:55:05;53264.53;;;-145.32;100.00
14041;BME280;7095;51.388;6.196;2022-07-26T01:57:35;53288.38;;;-145.32;100.00
14041;BME280;7095;51.388;6.196;2022-07-26T02:00:06;53284.41;;;-145.32;100.00
14041;BME280;7095;51.388;6.196;2022-07-26T02:02:35;53300.31;;;-145.32;100.00
14041;BME280;7095;51.388;6.196;2022-07-26T02:05:04;53284.41;;;-145.32;100.00
14041;BME280;7095;51.388;6.196;2022-07-26T02:07:37;53284.41;;;-145.32;100.00
14041;BME280;7095;51.388;6.196;2022-07-26T02:10:11;53290.38;;;-145.32;100.00
14041;BME280;7095;51.388;6.196;2022-07-26T02:12:42;53304.28;;;-145.32;100.00
14041;BME280;7095;51.388;6.196;2022-07-26T02:15:12;53296.31;;;-145.32;100.00
14041;BME280;7095;51.388;6.196;2022-07-26T02:17:41;53292.34;;;-145.32;100.00
14041;BME280;7095;51.388;6.196;2022-07-26T02:20:11;53296.31;;;-145.32;100.00
14041;BME280;7095;51.388;6.196;2022-07-26T02:22:43;53280.41;;;-145.32;100.00
14041;BME280;7095;51.388;6.196;2022-07-26T02:25:12;53310.25;;;-145.32;100.00
14041;BME280;7095;51.388;6.196;2022-07-26T02:27:42;53290.38;;;-145.32;100.00
14041;BME280;7095;51.388;6.196;2022-07-26T02:30:11;53256.56;;;-145.32;100.00
14041;BME280;7095;51.388;6.196;2022-07-26T02:32:40;53302.28;;;-145.32;100.00
14041;BME280;7095;51.388;6.196;2022-07-26T02:35:12;53292.34;;;-145.32;100.00
14041;BME280;7095;51.388;6.196;2022-07-26T02:37:41;53264.53;;;-145.32;100.00
14041;BME280;7095;51.388;6.196;2022-07-26T02:40:11;53272.47;;;-145.32;100.00
14041;BME280;7095;51.388;6.196;2022-07-26T02:42:46;53322.16;;;-145.32;100.00
14041;BME280;7095;51.388;6.196;2022-07-26T02:45:15;53312.22;;;-145.32;100.00
14041;BME280;7095;51.388;6.196;2022-07-26T02:47:46;53280.41;;;-145.32;100.00
14041;BME280;7095;51.388;6.196;2022-07-26T02:50:16;53312.22;;;-145.32;100.00
14041;BME280;7095;51.388;6.196;2022-07-26T02:52:46;53296.31;;;-145.32;100.00
14041;BME280;7095;51.388;6.196;2022-07-26T02:55:16;53304.28;;;-145.32;100.00
14041;BME280;7095;51.388;6.196;2022-07-26T02:57:47;53300.31;;;-145.32;100.00
14041;BME280;7095;51.388;6.196;2022-07-26T03:00:19;53284.41;;;-145.32;100.00
14041;BME280;7095;51.388;6.196;2022-07-26T03:02:49;53274.47;;;-145.32;100.00
14041;BME280;7095;51.388;6.196;2022-07-26T03:05:19;53292.34;;;-145.32;100.00
14041;BME280;7095;51.388;6.196;2022-07-26T03:07:49;53284.41;;;-145.32;100.00
14041;BME280;7095;51.388;6.196;2022-07-26T03:10:17;53280.41;;;-145.32;100.00
14041;BME280;7095;51.388;6.196;2022-07-26T03:12:48;53264.53;;;-145.32;100.00
14041;BME280;7095;51.388;6.196;2022-07-26T03:15:19;53288.38;;;-145.32;100.00
14041;BME280;7095;51.388;6.196;2022-07-26T03:17:48;53300.31;;;-145.32;100.00
14041;BME280;7095;51.388;6.196;2022-07-26T03:20:17;53308.25;;;-145.32;100.00
14041;BME280;7095;51.388;6.196;2022-07-26T03:22:46;53296.31;;;-145.32;100.00
14041;BME280;7095;51.388;6.196;2022-07-26T03:25:15;53272.47;;;-145.32;100.00
14041;BME280;7095;51.388;6.196;2022-07-26T03:27:43;53304.28;;;-145.32;100.00
14041;BME280;7095;51.388;6.196;2022-07-26T03:30:14;53318.19;;;-145.32;100.00
14041;BME280;7095;51.388;6.196;2022-07-26T03:32:51;53300.31;;;-145.32;100.00
14041;BME280;7095;51.388;6.196;2022-07-26T03:35:20;53264.53;;;-145.32;100.00
14041;BME280;7095;51.388;6.196;2022-07-26T03:37:49;53300.31;;;-145.32;100.00
14041;BME280;7095;51.388;6.196;2022-07-26T03:40:21;53312.22;;;-145.32;100.00
14041;BME280;7095;51.388;6.196;2022-07-26T03:42:50;53300.31;;;-145.32;100.00
14041;BME280;7095;51.388;6.196;2022-07-26T03:45:21;53314.22;;;-145.32;100.00
14041;BME280;7095;51.388;6.196;2022-07-26T03:47:49;53298.31;;;-145.32;100.00
14041;BME280;7095;51.388;6.196;2022-07-26T03:50:19;53292.34;;;-145.32;100.00
14041;BME280;7095;51.388;6.196;2022-07-26T03:52:48;53320.19;;;-145.32;100.00
14041;BME280;7095;51.388;6.196;2022-07-26T03:55:18;53308.25;;;-145.32;100.00
14041;BME280;7095;51.388;6.196;2022-07-26T03:58:04;53306.28;;;-145.32;100.00
14041;BME280;7095;51.388;6.196;2022-07-26T04:00:34;53296.31;;;-145.32;100.00
14041;BME280;7095;51.388;6.196;2022-07-26T04:03:03;53308.25;;;-145.32;100.00
14041;BME280;7095;51.388;6.196;2022-07-26T04:05:31;53306.28;;;-145.32;100.00
14041;BME280;7095;51.388;6.196;2022-07-26T04:08:02;53342.06;;;-145.32;100.00
14041;BME280;7095;51.388;6.196;2022-07-26T04:10:32;53328.13;;;-145.32;100.00
14041;BME280;7095;51.388;6.196;2022-07-26T04:13:00;53300.31;;;-145.32;100.00
14041;BME280;7095;51.388;6.196;2022-07-26T04:15:29;53292.34;;;-145.32;100.00
14041;BME280;7095;51.388;6.196;2022-07-26T04:17:59;53298.31;;;-145.32;100.00
14041;BME280;7095;51.388;6.196;2022-07-26T04:20:28;53310.25;;;-145.32;100.00
14041;BME280;7095;51.388;6.196;2022-07-26T04:22:57;53300.31;;;-145.32;100.00
14041;BME280;7095;51.388;6.196;2022-07-26T04:25:26;53312.22;;;-145.32;100.00
14041;BME280;7095;51.388;6.196;2022-07-26T04:28:08;53304.28;;;-145.32;100.00
14041;BME280;7095;51.388;6.196;2022-07-26T04:30:37;53312.22;;;-145.32;100.00
14041;BME280;7095;51.388;6.196;2022-07-26T04:33:07;53284.41;;;-145.32;100.00
14041;BME280;7095;51.388;6.196;2022-07-26T04:35:36;53322.16;;;-145.32;100.00
14041;BME280;7095;51.388;6.196;2022-07-26T04:38:04;53312.22;;;-145.32;100.00
14041;BME280;7095;51.388;6.196;2022-07-26T04:40:33;53304.28;;;-145.32;100.00
14041;BME280;7095;51.388;6.196;2022-07-26T04:43:07;53276.44;;;-145.32;100.00
14041;BME280;7095;51.388;6.196;2022-07-26T04:45:43;53316.22;;;-145.32;100.00
14041;BME280;7095;51.388;6.196;2022-07-26T04:48:14;53316.22;;;-145.32;100.00
14041;BME280;7095;51.388;6.196;2022-07-26T04:50:43;53298.31;;;-145.32;100.00
14041;BME280;7095;51.388;6.196;2022-07-26T04:53:12;53322.16;;;-145.32;100.00
14041;BME280;7095;51.388;6.196;2022-07-26T04:55:41;53286.38;;;-145.32;100.00
14041;BME280;7095;51.388;6.196;2022-07-26T04:58:10;53316.22;;;-145.32;100.00
14041;BME280;7095;51.388;6.196;2022-07-26T05:00:39;53298.31;;;-145.32;100.00
14041;BME280;7095;51.388;6.196;2022-07-26T05:03:30;53308.25;;;-145.32;100.00
14041;BME280;7095;51.388;6.196;2022-07-26T05:05:59;53328.13;;;-145.32;100.00
14041;BME280;7095;51.388;6.196;2022-07-26T05:08:27;53296.31;;;-145.32;100.00
14041;BME280;7095;51.388;6.196;2022-07-26T05:10:56;53312.22;;;-145.32;100.00
14041;BME280;7095;51.388;6.196;2022-07-26T05:13:26;53304.28;;;-145.32;100.00
14041;BME280;7095;51.388;6.196;2022-07-26T05:15:57;53300.31;;;-145.32;100.00
14041;BME280;7095;51.388;6.196;2022-07-26T05:18:27;53278.44;;;-145.32;100.00
14041;BME280;7095;51.388;6.196;2022-07-26T05:21:17;53300.31;;;-145.32;100.00
14041;BME280;7095;51.388;6.196;2022-07-26T05:24:01;53294.34;;;-145.32;100.00
14041;BME280;7095;51.388;6.196;2022-07-26T05:26:33;53308.25;;;-145.32;100.00
14041;BME280;7095;51.388;6.196;2022-07-26T05:29:05;53294.34;;;-145.32;100.00
14041;BME280;7095;51.388;6.196;2022-07-26T05:31:33;53300.31;;;-145.32;100.00
14041;BME280;7095;51.388;6.196;2022-07-26T05:34:02;53312.22;;;-145.32;100.00
14041;BME280;7095;51.388;6.196;2022-07-26T05:36:33;53290.38;;;-145.32;100.00
14041;BME280;7095;51.388;6.196;2022-07-26T05:39:02;53292.34;;;-145.32;100.00
14041;BME280;7095;51.388;6.196;2022-07-26T05:41:30;53280.41;;;-145.32;100.00
14041;BME280;7095;51.388;6.196;2022-07-26T05:43:59;53272.47;;;-145.32;100.00
14041;BME280;7095;51.388;6.196;2022-07-26T05:46:29;53300.31;;;-145.32;100.00
14041;BME280;7095;51.388;6.196;2022-07-26T05:48:58;53284.41;;;-145.32;100.00
14041;BME280;7095;51.388;6.196;2022-07-26T05:51:27;53280.41;;;-145.32;100.00
14041;BME280;7095;51.388;6.196;2022-07-26T05:53:58;53278.44;;;-145.32;100.00
14041;BME280;7095;51.388;6.196;2022-07-26T05:56:27;53280.41;;;-145.32;100.00
14041;BME280;7095;51.388;6.196;2022-07-26T05:58:56;53282.41;;;-145.32;100.00
14041;BME280;7095;51.388;6.196;2022-07-26T06:01:25;53268.50;;;-145.32;100.00
14041;BME280;7095;51.388;6.196;2022-07-26T06:03:58;53264.53;;;-145.32;100.00
14041;BME280;7095;51.388;6.196;2022-07-26T06:06:27;53286.38;;;-145.32;100.00
14041;BME280;7095;51.388;6.196;2022-07-26T06:08:56;53300.31;;;-145.32;100.00
14041;BME280;7095;51.388;6.196;2022-07-26T06:11:26;53276.44;;;-145.32;100.00
14041;BME280;7095;51.388;6.196;2022-07-26T06:13:54;53280.41;;;-145.32;100.00
14041;BME280;7095;51.388;6.196;2022-07-26T06:16:23;53316.22;;;-145.32;100.00
14041;BME280;7095;51.388;6.196;2022-07-26T06:18:51;53280.41;;;-145.32;100.00
14041;BME280;7095;51.388;6.196;2022-07-26T06:21:20;53282.41;;;-145.32;100.00
14041;BME280;7095;51.388;6.196;2022-07-26T06:23:48;53306.28;;;-145.32;100.00
14041;BME280;7095;51.388;6.196;2022-07-26T06:26:17;53288.38;;;-145.32;100.00
14041;BME280;7095;51.388;6.196;2022-07-26T06:28:47;53294.34;;;-145.32;100.00
14041;BME280;7095;51.388;6.196;2022-07-26T06:31:17;53292.34;;;-145.32;100.00
14041;BME280;7095;51.388;6.196;2022-07-26T06:33:47;53292.34;;;-145.32;100.00
14041;BME280;7095;51.388;6.196;2022-07-26T06:36:16;53296.31;;;-145.32;100.00
14041;BME280;7095;51.388;6.196;2022-07-26T06:38:45;53288.38;;;-145.32;100.00
14041;BME280;7095;51.388;6.196;2022-07-26T06:41:15;53276.44;;;-145.32;100.00
14041;BME280;7095;51.388;6.196;2022-07-26T06:43:43;53294.34;;;-145.32;100.00
14041;BME280;7095;51.388;6.196;2022-07-26T06:46:13;53260.53;;;-145.32;100.00
14041;BME280;7095;51.388;6.196;2022-07-26T06:48:43;53282.41;;;-145.32;100.00
14041;BME280;7095;51.388;6.196;2022-07-26T06:51:19;53290.38;;;-145.32;100.00
14041;BME280;7095;51.388;6.196;2022-07-26T06:53:48;53250.59;;;-145.32;100.00
14041;BME280;7095;51.388;6.196;2022-07-26T06:56:17;53252.59;;;-145.32;100.00
14041;BME280;7095;51.388;6.196;2022-07-26T06:58:47;53266.50;;;-145.32;100.00
14041;BME280;7095;51.388;6.196;2022-07-26T07:01:17;53260.53;;;-145.32;100.00
14041;BME280;7095;51.388;6.196;2022-07-26T07:04:06;53264.53;;;-145.32;100.00
14041;BME280;7095;51.388;6.196;2022-07-26T07:06:35;53288.38;;;-145.32;100.00
14041;BME280;7095;51.388;6.196;2022-07-26T07:09:04;53242.66;;;-145.32;100.00
14041;BME280;7095;51.388;6.196;2022-07-26T07:11:35;53274.47;;;-145.32;100.00
14041;BME280;7095;51.388;6.196;2022-07-26T07:14:04;53246.63;;;-145.32;100.00
14041;BME280;7095;51.388;6.196;2022-07-26T07:16:34;53282.41;;;-145.32;100.00
14041;BME280;7095;51.388;6.196;2022-07-26T07:19:03;53276.44;;;-145.32;100.00
14041;BME280;7095;51.388;6.196;2022-07-26T07:21:32;53266.50;;;-145.32;100.00
14041;BME280;7095;51.388;6.196;2022-07-26T07:24:01;53258.56;;;-145.32;100.00
14041;BME280;7095;51.388;6.196;2022-07-26T07:26:30;53256.56;;;-145.32;100.00
14041;BME280;7095;51.388;6.196;2022-07-26T07:28:58;53206.88;;;-145.32;100.00
14041;BME280;7095;51.388;6.196;2022-07-26T07:31:30;53240.66;;;-145.32;100.00
14041;BME280;7095;51.388;6.196;2022-07-26T07:34:17;53246.63;;;-145.32;100.00
14041;BME280;7095;51.388;6.196;2022-07-26T07:36:50;53232.72;;;-145.32;100.00
14041;BME280;7095;51.388;6.196;2022-07-26T07:39:20;53224.75;;;-145.32;100.00
14041;BME280;7095;51.388;6.196;2022-07-26T07:41:53;53252.59;;;-145.32;100.00
14041;BME280;7095;51.388;6.196;2022-07-26T07:44:22;53250.59;;;-145.32;100.00
14041;BME280;7095;51.388;6.196;2022-07-26T07:46:50;53232.72;;;-145.32;100.00
14041;BME280;7095;51.388;6.196;2022-07-26T07:49:21;53228.75;;;-145.32;100.00
14041;BME280;7095;51.388;6.196;2022-07-26T07:51:50;53214.81;;;-145.32;100.00
14041;BME280;7095;51.388;6.196;2022-07-26T07:54:19;53194.94;;;-145.32;100.00
14041;BME280;7095;51.388;6.196;2022-07-26T07:56:48;53220.78;;;-145.32;100.00
14041;BME280;7095;51.388;6.196;2022-07-26T07:59:17;53228.75;;;-145.32;100.00
14041;BME280;7095;51.388;6.196;2022-07-26T08:01:48;53220.78;;;-145.32;100.00
14041;BME280;7095;51.388;6.196;2022-07-26T08:04:18;53228.75;;;-145.32;100.00
14041;BME280;7095;51.388;6.196;2022-07-26T08:06:48;53224.75;;;-145.32;100.00
14041;BME280;7095;51.388;6.196;2022-07-26T08:09:18;53242.66;;;-145.32;100.00
14041;BME280;7095;51.388;6.196;2022-07-26T08:11:47;53240.66;;;-145.32;100.00
14041;BME280;7095;51.388;6.196;2022-07-26T08:14:17;53216.81;;;-145.32;100.00
14041;BME280;7095;51.388;6.196;2022-07-26T08:16:46;53260.53;;;-145.32;100.00
14041;BME280;7095;51.388;6.196;2022-07-26T08:19:15;53224.75;;;-145.32;100.00
14041;BME280;7095;51.388;6.196;2022-07-26T08:21:45;53228.75;;;-145.32;100.00
14041;BME280;7095;51.388;6.196;2022-07-26T08:24:15;53216.81;;;-145.32;100.00
14041;BME280;7095;51.388;6.196;2022-07-26T08:26:44;53218.81;;;-145.32;100.00
14041;BME280;7095;51.388;6.196;2022-07-26T08:29:13;53224.75;;;-145.32;100.00
14041;BME280;7095;51.388;6.196;2022-07-26T08:31:42;53204.88;;;-145.32;100.00
14041;BME280;7095;51.388;6.196;2022-07-26T08:34:11;53232.72;;;-145.32;100.00
14041;BME280;7095;51.388;6.196;2022-07-26T08:36:40;53222.78;;;-145.32;100.00
14041;BME280;7095;51.388;6.196;2022-07-26T08:39:30;53232.72;;;-145.32;100.00
14041;BME280;7095;51.388;6.196;2022-07-26T08:42:00;53190.97;;;-145.32;100.00
14041;BME280;7095;51.388;6.196;2022-07-26T08:44:29;53216.81;;;-145.32;100.00
14041;BME280;7095;51.388;6.196;2022-07-26T08:46:58;53244.63;;;-145.32;100.00
14041;BME280;7095;51.388;6.196;2022-07-26T08:49:28;53214.81;;;-145.32;100.00
14041;BME280;7095;51.388;6.196;2022-07-26T08:51:57;53200.91;;;-145.32;100.00
14041;BME280;7095;51.388;6.196;2022-07-26T08:54:26;53214.81;;;-145.32;100.00
14041;BME280;7095;51.388;6.196;2022-07-26T08:56:56;53194.94;;;-145.32;100.00
14041;BME280;7095;51.388;6.196;2022-07-26T08:59:27;53236.69;;;-145.32;100.00
14041;BME280;7095;51.388;6.196;2022-07-26T09:01:58;53204.88;;;-145.32;100.00
14041;BME280;7095;51.388;6.196;2022-07-26T09:04:30;53204.88;;;-145.32;100.00
14041;BME280;7095;51.388;6.196;2022-07-26T09:07:09;53190.97;;;-145.32;99.16
14041;BME280;7095;51.388;6.196;2022-07-26T09:09:55;53185.00;;;-145.32;98.87
14041;BME280;7095;51.388;6.196;2022-07-26T09:12:27;53185.00;;;-145.32;96.92
14041;BME280;7095;51.388;6.196;2022-07-26T09:14:57;53173.06;;;-145.32;92.74
14041;BME280;7095;51.388;6.196;2022-07-26T09:17:37;53188.97;;;-145.32;90.20
14041;BME280;7095;51.388;6.196;2022-07-26T09:20:09;53161.16;;;-145.32;90.09
14041;BME280;7095;51.388;6.196;2022-07-26T09:22:55;53212.84;;;-145.32;84.01
14041;BME280;7095;51.388;6.196;2022-07-26T09:25:25;53208.84;;;-145.32;87.05
14041;BME280;7095;51.388;6.196;2022-07-26T09:27:56;53177.06;;;-145.32;86.08
14041;BME280;7095;51.388;6.196;2022-07-26T09:30:27;53165.13;;;-145.32;88.55
14041;BME280;7095;51.388;6.196;2022-07-26T09:32:58;53187.00;;;-145.32;87.07
14041;BME280;7095;51.388;6.196;2022-07-26T09:35:30;53173.06;;;-145.32;85.15
14041;BME280;7095;51.388;6.196;2022-07-26T09:38:19;53200.91;;;-145.32;87.85
14041;BME280;7095;51.388;6.196;2022-07-26T09:40:48;53194.94;;;-145.32;90.85
14041;BME280;7095;51.388;6.196;2022-07-26T09:43:19;53216.81;;;-145.32;94.35
14041;BME280;7095;51.388;6.196;2022-07-26T09:46:04;53177.06;;;-145.32;100.00
14041;BME280;7095;51.388;6.196;2022-07-26T09:48:33;53202.91;;;-145.32;100.00
14041;BME280;7095;51.388;6.196;2022-07-26T09:51:37;53190.97;;;-145.32;100.00
14041;BME280;7095;51.388;6.196;2022-07-26T09:54:06;53204.88;;;-145.32;100.00
14041;BME280;7095;51.388;6.196;2022-07-26T09:56:47;53204.88;;;-145.32;100.00
14041;BME280;7095;51.388;6.196;2022-07-26T09:59:18;53187.00;;;-145.32;100.00
14041;BME280;7095;51.388;6.196;2022-07-26T10:01:49;53204.88;;;-145.32;100.00
14041;BME280;7095;51.388;6.196;2022-07-26T10:04:19;53216.81;;;-145.32;100.00
14041;BME280;7095;51.388;6.196;2022-07-26T10:06:49;53236.69;;;-145.32;100.00
14041;BME280;7095;51.388;6.196;2022-07-26T10:09:18;53208.84;;;-145.32;100.00
14041;BME280;7095;51.388;6.196;2022-07-26T10:11:54;53232.72;;;-145.32;100.00
14041;BME280;7095;51.388;6.196;2022-07-26T10:14:38;53202.91;;;-145.32;100.00
14041;BME280;7095;51.388;6.196;2022-07-26T10:20:38;53177.06;;;-145.32;100.00
14041;BME280;7095;51.388;6.196;2022-07-26T10:23:36;53220.78;;;-145.32;100.00
14041;BME280;7095;51.388;6.196;2022-07-26T10:26:08;53212.84;;;-145.32;100.00
14041;BME280;7095;51.388;6.196;2022-07-26T10:28:39;53192.94;;;-145.32;100.00
14041;BME280;7095;51.388;6.196;2022-07-26T10:31:29;53185.00;;;-145.32;100.00
14041;BME280;7095;51.388;6.196;2022-07-26T10:33:59;53165.13;;;-145.32;100.00
14041;BME280;7095;51.388;6.196;2022-07-26T10:36:33;53169.09;;;-145.32;100.00
14041;BME280;7095;51.388;6.196;2022-07-26T10:39:10;53171.09;;;-145.32;100.00
14041;BME280;7095;51.388;6.196;2022-07-26T10:41:42;53153.19;;;-145.32;100.00
14041;BME280;7095;51.388;6.196;2022-07-26T10:44:16;53157.19;;;-145.32;100.00
14041;BME280;7095;51.388;6.196;2022-07-26T10:47:09;53157.19;;;-145.32;100.00
14041;BME280;7095;51.388;6.196;2022-07-26T10:49:54;53165.13;;;-145.32;95.46
14041;BME280;7095;51.388;6.196;2022-07-26T10:52:26;53163.13;;;-145.32;94.77
14041;BME280;7095;51.388;6.196;2022-07-26T10:55:14;53159.16;;;-145.32;92.51
14041;BME280;7095;51.388;6.196;2022-07-26T10:57:46;53165.13;;;-145.32;95.51
14041;BME280;7095;51.388;6.196;2022-07-26T11:00:18;53161.16;;;-145.32;96.57
14041;BME280;7095;51.388;6.196;2022-07-26T11:02:52;53153.19;;;-145.32;88.65
14041;BME280;7095;51.388;6.196;2022-07-26T11:05:22;53165.13;;;-145.32;86.87
14041;BME280;7095;51.388;6.196;2022-07-26T11:07:57;53185.00;;;-145.32;86.67
14041;BME280;7095;51.388;6.196;2022-07-26T11:10:29;53147.22;;;-145.32;89.11
14041;BME280;7095;51.388;6.196;2022-07-26T11:13:10;53147.22;;;-145.32;85.93
14041;BME280;7095;51.388;6.196;2022-07-26T11:15:41;53153.19;;;-145.32;83.64
14041;BME280;7095;51.388;6.196;2022-07-26T11:18:23;53177.06;;;-145.32;80.48
14041;BME280;7095;51.388;6.196;2022-07-26T11:20:55;53179.03;;;-145.32;86.56
14041;BME280;7095;51.388;6.196;2022-07-26T11:23:28;53173.06;;;-145.32;87.06
14041;BME280;7095;51.388;6.196;2022-07-26T11:26:04;53181.03;;;-145.32;84.89
14041;BME280;7095;51.388;6.196;2022-07-26T11:28:51;53149.22;;;-145.32;89.38
14041;BME280;7095;51.388;6.196;2022-07-26T11:31:24;53169.09;;;-145.32;89.26
14041;BME280;7095;51.388;6.196;2022-07-26T11:34:21;53169.09;;;-145.32;88.07
14041;BME280;7095;51.388;6.196;2022-07-26T11:36:53;53153.19;;;-145.32;88.46
14041;BME280;7095;51.388;6.196;2022-07-26T11:39:23;53137.28;;;-145.32;89.69
14041;BME280;7095;51.388;6.196;2022-07-26T11:41:56;53149.22;;;-145.32;85.05
14041;BME280;7095;51.388;6.196;2022-07-26T11:44:26;53165.13;;;-145.32;82.12
14041;BME280;7095;51.388;6.196;2022-07-26T11:46:55;53141.28;;;-145.32;81.92
14041;BME280;7095;51.388;6.196;2022-07-26T11:49:28;53153.19;;;-145.32;79.60
14041;BME280;7095;51.388;6.196;2022-07-26T11:52:17;53109.47;;;-145.32;80.16
14041;BME280;7095;51.388;6.196;2022-07-26T11:54:52;53121.41;;;-145.32;79.26
14041;BME280;7095;51.388;6.196;2022-07-26T11:57:27;53131.34;;;-145.32;79.52
14041;BME280;7095;51.388;6.196;2022-07-26T11:59:57;53159.16;;;-145.32;80.01
14041;BME280;7095;51.388;6.196;2022-07-26T12:02:27;53173.06;;;-145.32;81.45
14041;BME280;7095;51.388;6.196;2022-07-26T12:05:13;53181.03;;;-145.32;82.09
14041;BME280;7095;51.388;6.196;2022-07-26T12:07:59;53177.06;;;-145.32;84.29
14041;BME280;7095;51.388;6.196;2022-07-26T12:10:29;53216.81;;;-145.32;88.24
14041;BME280;7095;51.388;6.196;2022-07-26T12:13:09;53173.06;;;-145.32;87.93
14041;BME280;7095;51.388;6.196;2022-07-26T12:15:48;53183.00;;;-145.32;88.41
14041;BME280;7095;51.388;6.196;2022-07-26T12:18:21;53185.00;;;-145.32;88.50
14041;BME280;7095;51.388;6.196;2022-07-26T12:21:00;53220.78;;;-145.32;91.59
14041;BME280;7095;51.388;6.196;2022-07-26T12:23:40;53165.13;;;-145.32;91.81
14041;BME280;7095;51.388;6.196;2022-07-26T12:26:27;53177.06;;;-145.32;90.57
14041;BME280;7095;51.388;6.196;2022-07-26T12:28:57;53194.94;;;-145.32;93.29
14041;BME280;7095;51.388;6.196;2022-07-26T12:31:59;53165.13;;;-145.32;89.10
14041;BME280;7095;51.388;6.196;2022-07-26T12:34:28;53224.75;;;-145.32;90.85
14041;BME280;7095;51.388;6.196;2022-07-26T12:37:10;53190.97;;;-145.32;93.27
14041;BME280;7095;51.388;6.196;2022-07-26T12:39:40;53228.75;;;-145.32;94.35
14041;BME280;7095;51.388;6.196;2022-07-26T12:42:23;53188.97;;;-145.32;96.69
14041;BME280;7095;51.388;6.196;2022-07-26T12:45:03;53212.84;;;-145.32;95.18
14041;BME280;7095;51.388;6.196;2022-07-26T12:47:35;53192.94;;;-145.32;95.15
14041;BME280;7095;51.388;6.196;2022-07-26T12:50:06;53179.03;;;-145.32;96.81
14041;BME280;7095;51.388;6.196;2022-07-26T12:52:37;53210.84;;;-145.32;97.93
14041;BME280;7095;51.388;6.196;2022-07-26T12:55:07;53210.84;;;-145.32;100.00
14041;BME280;7095;51.388;6.196;2022-07-26T12:57:37;53208.84;;;-145.32;100.00
14041;BME280;7095;51.388;6.196;2022-07-26T13:00:13;53224.75;;;-145.32;100.00
14041;BME280;7095;51.388;6.196;2022-07-26T13:02:44;53240.66;;;-145.32;100.00
14041;BME280;7095;51.388;6.196;2022-07-26T13:05:14;53244.63;;;-145.32;100.00
14041;BME280;7095;51.388;6.196;2022-07-26T13:07:44;53264.53;;;-145.32;100.00
14041;BME280;7095;51.388;6.196;2022-07-26T13:10:13;53230.72;;;-145.32;100.00